createdAt,value
2022-08-28T00:00:31.092Z,8.27
2022-08-28T00:02:59.861Z,8.32
2022-08-28T00:05:31.394Z,8.05
2022-08-28T00:08:02.237Z,8.05
2022-08-28T00:10:32.413Z,8.25
2022-08-28T00:13:00.945Z,7.88
2022-08-28T00:15:33.844Z,8.30
2022-08-28T00:18:03.934Z,8.25
2022-08-28T00:20:34.364Z,7.95
2022-08-28T00:23:03.200Z,8.00
2022-08-28T00:25:33.882Z,8.00
2022-08-28T00:28:08.719Z,7.85
2022-08-28T00:30:40.364Z,8.07
2022-08-28T00:33:13.824Z,8.75
2022-08-28T00:35:43.429Z,8.27
2022-08-28T00:38:15.079Z,7.93
2022-08-28T00:40:46.346Z,7.78
2022-08-28T00:43:28.170Z,8.43
2022-08-28T00:45:56.394Z,7.43
2022-08-28T00:48:24.632Z,7.97
2022-08-28T00:51:10.600Z,7.72
2022-08-28T00:53:39.085Z,7.72
2022-08-28T00:56:13.554Z,7.57
2022-08-28T00:58:45.234Z,8.10
2022-08-28T01:01:15.070Z,8.57
2022-08-28T01:03:44.408Z,8.15
2022-08-28T01:06:14.827Z,7.53
2022-08-28T01:08:50.365Z,8.15
2022-08-28T01:11:22.096Z,7.97
2022-08-28T01:13:51.215Z,8.15
2022-08-28T01:16:23.039Z,7.70
2022-08-28T01:18:57.460Z,8.30
2022-08-28T01:21:30.968Z,7.97
2022-08-28T01:24:07.179Z,8.48
2022-08-28T01:26:35.484Z,7.57
2022-08-28T01:29:04.045Z,8.02
2022-08-28T01:31:33.455Z,7.75
2022-08-28T01:34:01.929Z,8.27
2022-08-28T01:36:31.304Z,7.57
2022-08-28T01:39:07.789Z,7.50
2022-08-28T01:41:40.026Z,8.02
2022-08-28T01:44:08.579Z,7.63
2022-08-28T01:46:37.273Z,8.45
2022-08-28T01:49:07.436Z,8.27
2022-08-28T01:51:38.047Z,7.85
2022-08-28T01:54:08.607Z,7.97
2022-08-28T01:56:38.391Z,7.95
2022-08-28T01:59:10.997Z,8.07
2022-08-28T02:01:40.131Z,7.78
2022-08-28T02:04:08.596Z,8.10
2022-08-28T02:06:37.963Z,7.90
2022-08-28T02:09:11.602Z,8.00
2022-08-28T02:11:44.358Z,7.90
2022-08-28T02:14:16.055Z,8.10
2022-08-28T02:16:44.336Z,7.85
2022-08-28T02:19:13.184Z,7.63
2022-08-28T02:21:42.127Z,7.40
2022-08-28T02:24:11.830Z,8.05
2022-08-28T02:26:40.396Z,8.07
2022-08-28T02:29:08.652Z,7.82
2022-08-28T02:31:37.754Z,7.30
2022-08-28T02:34:06.926Z,8.43
2022-08-28T02:36:35.281Z,7.38
2022-08-28T02:39:03.565Z,7.25
2022-08-28T02:41:33.378Z,7.72
2022-08-28T02:44:01.736Z,7.30
2022-08-28T02:46:30.144Z,7.72
2022-08-28T02:48:58.402Z,7.38
2022-08-28T02:51:27.423Z,7.20
2022-08-28T02:53:55.630Z,8.10
2022-08-28T02:56:24.632Z,7.25
2022-08-28T02:58:54.356Z,7.50
2022-08-28T03:01:25.231Z,7.70
2022-08-28T03:03:54.324Z,7.75
2022-08-28T03:06:23.094Z,7.35
2022-08-28T03:08:52.974Z,7.60
2022-08-28T03:11:21.184Z,7.28
2022-08-28T03:13:49.459Z,7.90
2022-08-28T03:16:19.623Z,8.07
2022-08-28T03:18:47.853Z,8.15
2022-08-28T03:21:16.053Z,7.80
2022-08-28T03:23:44.335Z,7.22
2022-08-28T03:26:17.250Z,7.18
2022-08-28T03:28:52.742Z,7.85
2022-08-28T03:31:25.356Z,7.43
2022-08-28T03:33:54.580Z,8.68
2022-08-28T03:36:25.507Z,7.70
2022-08-28T03:38:56.873Z,7.68
2022-08-28T03:41:29.114Z,7.55
2022-08-28T03:43:58.251Z,7.68
2022-08-28T03:46:29.660Z,8.00
2022-08-28T03:48:57.855Z,7.28
2022-08-28T03:51:29.419Z,8.80
2022-08-28T03:53:59.285Z,8.05
2022-08-28T03:56:29.874Z,8.20
2022-08-28T03:59:01.594Z,8.05
2022-08-28T04:01:33.125Z,7.70
2022-08-28T04:04:02.076Z,8.27
2022-08-28T04:06:30.300Z,8.05
2022-08-28T04:09:00.034Z,8.75
2022-08-28T04:11:28.910Z,8.90
2022-08-28T04:13:57.916Z,8.65
2022-08-28T04:16:26.238Z,8.43
2022-08-28T04:18:55.808Z,9.07
2022-08-28T04:21:26.117Z,8.93
2022-08-28T04:23:55.319Z,9.43
2022-08-28T04:26:27.695Z,8.82
2022-08-28T04:28:56.718Z,9.27
2022-08-28T04:31:32.208Z,8.90
2022-08-28T04:34:05.937Z,9.23
2022-08-28T04:36:34.618Z,9.77
2022-08-28T04:39:05.438Z,9.95
2022-08-28T04:41:34.308Z,9.30
2022-08-28T04:44:02.558Z,9.07
2022-08-28T04:46:31.197Z,9.45
2022-08-28T04:49:00.435Z,9.73
2022-08-28T04:51:30.300Z,9.93
2022-08-28T04:53:59.329Z,9.65
2022-08-28T04:56:28.215Z,9.73
2022-08-28T04:58:56.528Z,8.68
2022-08-28T05:01:26.270Z,9.77
2022-08-28T05:03:57.883Z,8.98
2022-08-28T05:06:28.194Z,9.07
2022-08-28T05:09:00.147Z,9.20
2022-08-28T05:11:34.004Z,9.07
2022-08-28T05:14:04.868Z,9.43
2022-08-28T05:16:34.509Z,8.93
2022-08-28T05:19:03.456Z,8.85
2022-08-28T05:21:31.754Z,9.15
2022-08-28T05:24:01.426Z,9.35
2022-08-28T05:26:30.265Z,9.18
2022-08-28T05:29:02.001Z,9.18
2022-08-28T05:31:33.070Z,8.80
2022-08-28T05:34:02.715Z,9.02
2022-08-28T05:36:36.815Z,9.02
2022-08-28T05:39:11.062Z,9.27
2022-08-28T05:41:41.367Z,9.00
2022-08-28T05:44:15.686Z,9.50
2022-08-28T05:46:47.763Z,9.68
2022-08-28T05:49:19.220Z,9.25
2022-08-28T05:51:48.066Z,9.40
2022-08-28T05:54:18.168Z,9.15
2022-08-28T05:56:47.157Z,8.45
2022-08-28T05:59:17.328Z,9.45
2022-08-28T06:01:50.783Z,9.63
2022-08-28T06:04:47.490Z,9.25
2022-08-28T06:07:35.923Z,9.15
2022-08-28T06:10:20.781Z,9.40
2022-08-28T06:12:49.025Z,9.43
2022-08-28T06:15:17.798Z,9.60
2022-08-28T06:17:46.635Z,8.85
2022-08-28T06:20:15.022Z,9.32
2022-08-28T06:22:44.555Z,9.20
2022-08-28T06:25:14.294Z,8.98
2022-08-28T06:27:44.142Z,9.52
2022-08-28T06:30:13.353Z,9.40
2022-08-28T06:32:41.816Z,9.35
2022-08-28T06:35:10.411Z,8.68
2022-08-28T06:37:43.427Z,8.55
2022-08-28T06:40:22.487Z,8.90
2022-08-28T06:42:52.273Z,8.25
2022-08-28T06:45:23.499Z,8.00
2022-08-28T06:47:54.869Z,7.40
2022-08-28T07:02:51.141Z,5.32
2022-08-28T07:06:02.292Z,4.25
2022-08-28T07:08:56.061Z,3.95
2022-08-28T07:15:56.052Z,3.40
2022-08-28T07:22:01.685Z,3.70
2022-08-28T07:25:07.591Z,3.10
2022-08-28T07:28:03.242Z,3.50
2022-08-28T07:30:38.558Z,2.92
2022-08-28T07:35:56.571Z,3.40
2022-08-28T07:38:34.141Z,3.13
2022-08-28T07:44:07.083Z,2.80
2022-08-28T07:46:40.655Z,3.00
2022-08-28T07:49:12.541Z,3.15
2022-08-28T07:51:46.996Z,2.70
2022-08-28T07:54:18.051Z,2.95
2022-08-28T07:56:46.774Z,2.90
2022-08-28T07:59:17.440Z,2.78
2022-08-28T08:01:51.936Z,2.67
2022-08-28T08:04:21.890Z,2.60
2022-08-28T08:06:57.588Z,2.78
2022-08-28T08:09:27.452Z,2.60
2022-08-28T08:11:57.628Z,2.50
2022-08-28T08:14:32.428Z,2.90
2022-08-28T08:17:07.459Z,2.70
2022-08-28T08:19:36.239Z,2.83
2022-08-28T08:22:04.544Z,2.75
2022-08-28T08:24:32.828Z,2.22
2022-08-28T08:27:03.180Z,3.03
2022-08-28T08:29:35.611Z,3.00
2022-08-28T08:32:08.576Z,2.67
2022-08-28T08:34:39.938Z,3.03
2022-08-28T08:37:08.748Z,2.78
2022-08-28T08:39:39.490Z,2.72
2022-08-28T08:42:15.873Z,2.78
2022-08-28T08:44:46.998Z,2.25
2022-08-28T08:47:23.115Z,2.05
2022-08-28T08:49:56.321Z,2.40
2022-08-28T08:52:37.901Z,2.25
2022-08-28T08:55:18.572Z,2.30
2022-08-28T08:57:49.747Z,2.03
2022-08-28T09:00:19.498Z,1.90
2022-08-28T09:02:57.868Z,1.92
2022-08-28T09:05:45.679Z,2.00
2022-08-28T09:08:33.594Z,1.70
2022-08-28T09:11:24.722Z,1.95
2022-08-28T09:14:00.621Z,2.33
2022-08-28T09:16:33.265Z,2.20
2022-08-28T09:19:03.986Z,2.05
2022-08-28T09:21:35.272Z,1.98
2022-08-28T09:24:10.942Z,1.90
2022-08-28T09:26:41.383Z,1.95
2022-08-28T09:29:18.841Z,2.00
2022-08-28T09:31:47.076Z,2.40
2022-08-28T09:34:28.560Z,2.42
2022-08-28T09:36:59.640Z,1.80
2022-08-28T09:39:30.807Z,1.98
2022-08-28T09:42:25.125Z,2.30
2022-08-28T09:45:02.737Z,2.20
2022-08-28T09:47:49.687Z,1.90
2022-08-28T09:50:32.282Z,2.08
2022-08-28T09:53:18.885Z,2.03
2022-08-28T09:55:58.203Z,2.05
2022-08-28T09:58:35.346Z,1.77
2022-08-28T10:01:33.402Z,1.98
2022-08-28T10:04:16.887Z,2.45
2022-08-28T10:06:53.987Z,2.05
2022-08-28T10:09:30.454Z,2.35
2022-08-28T10:12:07.901Z,1.85
2022-08-28T10:14:51.617Z,2.20
2022-08-28T10:17:31.606Z,2.30
2022-08-28T10:20:09.708Z,2.13
2022-08-28T10:22:51.097Z,1.90
2022-08-28T10:25:28.971Z,1.63
2022-08-28T10:28:18.752Z,1.63
2022-08-28T10:31:01.824Z,1.80
2022-08-28T10:33:57.556Z,1.80
2022-08-28T10:36:34.701Z,1.92
2022-08-28T10:39:17.965Z,1.70
2022-08-28T10:41:50.579Z,1.90
2022-08-28T10:44:26.064Z,1.60
2022-08-28T10:46:58.623Z,2.33
2022-08-28T10:49:33.239Z,1.75
2022-08-28T10:52:07.769Z,1.60
2022-08-28T10:54:49.455Z,1.40
2022-08-28T10:57:40.151Z,1.42
2022-08-28T11:00:15.079Z,1.70
2022-08-28T11:02:59.287Z,1.60
2022-08-28T11:05:37.768Z,1.60
2022-08-28T11:08:20.847Z,1.40
2022-08-28T11:10:56.454Z,1.75
2022-08-28T11:13:48.310Z,1.60
2022-08-28T11:16:23.736Z,1.35
2022-08-28T11:19:44.197Z,1.77
2022-08-28T11:22:20.704Z,1.40
2022-08-28T11:25:04.319Z,1.65
2022-08-28T11:27:48.272Z,1.60
2022-08-28T11:30:36.308Z,1.50
2022-08-28T11:33:37.093Z,1.65
2022-08-28T11:36:13.088Z,1.60
2022-08-28T11:39:06.305Z,1.52
2022-08-28T11:42:06.567Z,1.60
2022-08-28T11:44:47.298Z,1.67
2022-08-28T11:47:38.903Z,1.70
2022-08-28T11:50:18.677Z,1.50
2022-08-28T11:53:39.621Z,1.40
2022-08-28T11:56:37.841Z,1.95
2022-08-28T11:59:35.015Z,1.60
2022-08-28T12:02:52.255Z,1.33
2022-08-28T12:05:45.529Z,1.25
2022-08-28T12:08:55.013Z,1.70
2022-08-28T12:11:57.952Z,1.83
2022-08-28T12:15:10.883Z,1.70
2022-08-28T12:17:53.632Z,1.48
2022-08-28T12:21:00.024Z,1.52
2022-08-28T12:23:45.485Z,1.75
2022-08-28T12:26:27.384Z,1.23
2022-08-28T12:28:58.897Z,1.42
2022-08-28T12:32:14.600Z,2.10
2022-08-28T12:34:54.001Z,1.42
2022-08-28T12:37:52.118Z,1.50
2022-08-28T12:40:24.885Z,1.50
2022-08-28T12:42:56.416Z,1.50
2022-08-28T12:45:29.465Z,1.50
2022-08-28T12:48:01.502Z,1.60
2022-08-28T12:50:35.999Z,1.60
2022-08-28T12:53:08.164Z,1.50
2022-08-28T12:55:39.008Z,1.20
2022-08-28T12:58:14.969Z,1.50
2022-08-28T13:00:55.976Z,1.50
2022-08-28T13:03:24.317Z,1.30
2022-08-28T13:06:03.514Z,1.58
2022-08-28T13:08:33.267Z,1.40
2022-08-28T13:11:02.148Z,1.50
2022-08-28T13:13:39.972Z,1.63
2022-08-28T13:16:10.441Z,1.52
2022-08-28T13:18:49.904Z,1.52
2022-08-28T13:21:35.363Z,1.63
2022-08-28T13:24:27.859Z,1.60
2022-08-28T13:27:07.732Z,1.67
2022-08-28T13:29:37.514Z,1.30
2022-08-28T13:32:10.751Z,1.50
2022-08-28T13:34:46.056Z,1.45
2022-08-28T13:37:44.558Z,1.58
2022-08-28T13:40:38.197Z,1.70
2022-08-28T13:43:07.618Z,1.63
2022-08-28T13:45:43.796Z,1.40
2022-08-28T13:48:14.041Z,1.55
2022-08-28T13:50:46.944Z,1.60
2022-08-28T13:53:19.883Z,1.63
2022-08-28T13:55:51.095Z,1.33
2022-08-28T13:58:19.503Z,1.50
2022-08-28T14:00:50.417Z,1.40
2022-08-28T14:03:36.373Z,1.70
2022-08-28T14:06:09.245Z,1.30
2022-08-28T14:08:39.799Z,1.30
2022-08-28T14:11:08.840Z,1.38
2022-08-28T14:13:47.434Z,1.60
2022-08-28T14:16:24.247Z,1.60
2022-08-28T14:18:53.851Z,1.70
2022-08-28T14:21:22.223Z,1.45
2022-08-28T14:23:51.741Z,1.40
2022-08-28T14:26:20.248Z,1.50
2022-08-28T14:28:48.636Z,1.50
2022-08-28T14:31:16.955Z,1.25
2022-08-28T14:33:46.082Z,1.63
2022-08-28T14:36:17.630Z,1.42
2022-08-28T14:38:45.924Z,1.60
2022-08-28T14:41:17.412Z,1.50
2022-08-28T14:43:46.404Z,1.50
2022-08-28T14:46:17.636Z,1.40
2022-08-28T14:48:46.094Z,1.80
2022-08-28T14:51:15.190Z,1.67
2022-08-28T14:53:43.394Z,1.80
2022-08-28T14:56:12.147Z,1.42
2022-08-28T14:58:42.517Z,1.67
2022-08-28T15:01:10.841Z,1.63
2022-08-28T15:03:39.182Z,1.80
2022-08-28T15:06:10.654Z,1.50
2022-08-28T15:08:39.759Z,1.50
2022-08-28T15:11:09.577Z,1.35
2022-08-28T15:13:37.893Z,1.75
2022-08-28T15:16:15.629Z,1.48
2022-08-28T15:18:45.866Z,1.70
2022-08-28T15:21:18.741Z,1.60
2022-08-28T15:23:47.426Z,2.00
2022-08-28T15:26:16.082Z,1.58
2022-08-28T15:28:44.523Z,1.90
2022-08-28T15:31:14.725Z,1.98
2022-08-28T15:33:45.326Z,1.70
2022-08-28T15:36:14.168Z,1.40
2022-08-28T15:38:59.845Z,1.65
2022-08-28T15:41:29.396Z,1.80
2022-08-28T15:44:01.274Z,1.80
2022-08-28T15:46:34.332Z,1.58
2022-08-28T15:49:03.844Z,2.25
2022-08-28T15:51:36.520Z,1.92
2022-08-28T15:54:06.546Z,1.55
2022-08-28T15:56:35.062Z,1.77
2022-08-28T15:59:03.383Z,1.67
2022-08-28T16:01:33.021Z,1.70
2022-08-28T16:04:01.336Z,1.50
2022-08-28T16:06:33.647Z,1.70
2022-08-28T16:09:02.730Z,1.50
2022-08-28T16:11:33.834Z,1.95
2022-08-28T16:14:04.505Z,1.90
2022-08-28T16:16:35.634Z,2.40
2022-08-28T16:19:04.647Z,2.03
2022-08-28T16:21:33.075Z,2.28
2022-08-28T16:24:01.599Z,2.30
2022-08-28T16:26:29.915Z,1.90
2022-08-28T16:28:58.367Z,1.52
2022-08-28T16:31:27.276Z,2.40
2022-08-28T16:33:57.120Z,1.63
2022-08-28T16:36:26.438Z,1.60
2022-08-28T16:39:03.820Z,1.70
2022-08-28T16:41:33.152Z,1.80
2022-08-28T16:44:01.465Z,1.70
2022-08-28T16:46:30.845Z,1.75
2022-08-28T16:49:06.230Z,1.67
2022-08-28T16:51:38.234Z,1.75
2022-08-28T16:54:10.612Z,1.55
2022-08-28T16:56:51.507Z,2.40
2022-08-28T16:59:23.472Z,1.73
2022-08-28T17:01:57.014Z,2.00
2022-08-28T17:04:28.955Z,1.60
2022-08-28T17:06:57.572Z,1.90
2022-08-28T17:09:26.233Z,1.70
2022-08-28T17:11:54.889Z,1.65
2022-08-28T17:14:24.129Z,1.60
2022-08-28T17:16:54.437Z,1.80
2022-08-28T17:19:25.113Z,1.83
2022-08-28T17:22:15.053Z,1.85
2022-08-28T17:24:44.330Z,1.98
2022-08-28T17:27:22.458Z,1.65
2022-08-28T17:48:01.236Z,1.50
2022-08-28T17:50:32.259Z,1.80
2022-08-28T17:53:06.831Z,1.60
2022-08-28T17:55:50.427Z,1.60
2022-08-28T17:58:22.403Z,2.00
2022-08-28T18:01:08.978Z,1.77
2022-08-28T18:04:16.221Z,1.88
2022-08-28T18:15:12.985Z,1.88
2022-08-28T18:18:00.773Z,1.67
2022-08-28T18:20:30.452Z,1.73
2022-08-28T18:22:58.691Z,1.98
2022-08-28T18:25:50.581Z,1.70
2022-08-28T18:28:22.620Z,1.73
2022-08-28T18:30:52.792Z,2.63
2022-08-28T18:33:24.778Z,2.58
2022-08-28T18:35:55.723Z,2.78
2022-08-28T18:38:28.111Z,1.90
2022-08-28T18:40:59.910Z,1.98
2022-08-28T18:43:28.199Z,1.70
2022-08-28T18:49:19.320Z,2.30
2022-08-28T18:55:41.423Z,2.33
2022-08-28T18:58:10.394Z,2.00
2022-08-28T19:00:53.119Z,2.17
2022-08-28T19:03:23.704Z,2.10
2022-08-28T19:05:52.271Z,2.22
2022-08-28T19:08:21.504Z,2.30
2022-08-28T19:10:54.438Z,2.22
2022-08-28T19:13:23.283Z,2.40
2022-08-28T19:15:53.591Z,2.22
2022-08-28T19:18:22.064Z,2.95
2022-08-28T19:20:51.712Z,2.85
2022-08-28T19:23:20.177Z,3.10
2022-08-28T19:25:53.915Z,2.90
2022-08-28T19:28:24.925Z,2.60
2022-08-28T19:30:53.228Z,3.05
2022-08-28T19:33:24.032Z,2.80
2022-08-28T19:35:52.546Z,2.80
2022-08-28T19:38:20.710Z,2.70
2022-08-28T19:40:49.022Z,3.42
2022-08-28T19:43:18.795Z,2.95
2022-08-28T19:45:47.242Z,2.80
2022-08-28T19:48:15.770Z,2.70
2022-08-28T19:50:44.087Z,3.03
2022-08-28T19:53:13.302Z,2.83
2022-08-28T19:55:41.485Z,2.88
2022-08-28T19:58:12.852Z,2.60
2022-08-28T20:00:43.902Z,2.97
2022-08-28T20:03:12.162Z,2.70
2022-08-28T20:05:42.167Z,3.15
2022-08-28T20:08:14.804Z,2.60
2022-08-28T20:10:44.024Z,2.50
2022-08-28T20:13:12.915Z,2.80
2022-08-28T20:15:49.074Z,2.60
2022-08-28T20:18:18.471Z,3.13
2022-08-28T20:20:48.179Z,2.70
2022-08-28T20:23:18.059Z,2.58
2022-08-28T20:25:48.655Z,2.97
2022-08-28T20:28:18.447Z,3.10
2022-08-28T20:30:50.847Z,3.03
2022-08-28T20:33:19.414Z,3.50
2022-08-28T20:35:47.991Z,3.40
2022-08-28T20:38:16.266Z,2.97
2022-08-28T20:40:45.521Z,3.13
2022-08-28T20:43:13.827Z,3.10
2022-08-28T20:45:42.033Z,3.00
2022-08-28T20:48:11.660Z,3.00
2022-08-28T20:50:40.434Z,3.55
2022-08-28T20:53:08.810Z,3.22
2022-08-28T20:55:37.084Z,3.33
2022-08-28T20:58:05.460Z,2.95
2022-08-28T21:00:33.997Z,3.42
2022-08-28T21:03:02.528Z,3.40
2022-08-28T21:05:32.336Z,3.40
2022-08-28T21:08:00.938Z,3.83
2022-08-28T21:10:29.473Z,3.65
2022-08-28T21:12:57.746Z,3.50
2022-08-28T21:15:26.456Z,3.50
2022-08-28T21:17:54.984Z,3.25
2022-08-28T21:20:25.606Z,3.70
2022-08-28T21:22:58.291Z,3.67
2022-08-28T21:25:36.436Z,3.53
2022-08-28T21:28:08.129Z,3.38
2022-08-28T21:30:38.065Z,3.60
2022-08-28T21:33:14.189Z,3.50
2022-08-28T21:35:42.906Z,3.50
2022-08-28T21:38:12.767Z,4.15
2022-08-28T21:40:41.802Z,4.10
2022-08-28T21:43:10.101Z,3.70
2022-08-28T21:45:38.443Z,3.65
2022-08-28T21:48:08.012Z,4.45
2022-08-28T21:50:36.313Z,4.53
2022-08-28T21:53:05.213Z,3.92
2022-08-28T21:55:34.816Z,4.25
2022-08-28T21:58:03.176Z,3.95
2022-08-28T22:00:31.465Z,3.95
2022-08-28T22:03:00.091Z,4.20
2022-08-28T22:05:28.707Z,4.72
2022-08-28T22:07:56.878Z,3.95
2022-08-28T22:10:26.208Z,4.40
2022-08-28T22:12:56.476Z,3.97
2022-08-28T22:15:24.752Z,4.15
2022-08-28T22:17:52.996Z,4.03
2022-08-28T22:20:21.450Z,4.35
2022-08-28T22:23:07.261Z,4.03
2022-08-28T22:25:41.053Z,3.80
2022-08-28T22:28:11.768Z,3.97
2022-08-28T22:30:42.851Z,3.90
2022-08-28T22:33:11.838Z,3.85
2022-08-28T22:35:40.625Z,4.30
2022-08-28T22:38:08.831Z,3.63
2022-08-28T22:40:37.045Z,3.63
2022-08-28T22:43:05.342Z,3.72
2022-08-28T22:45:35.080Z,3.78
2022-08-28T22:48:03.637Z,3.80
2022-08-28T22:50:31.933Z,3.67
2022-08-28T22:53:00.203Z,3.90
2022-08-28T22:55:28.680Z,3.85
2022-08-28T22:57:56.943Z,3.70
2022-08-28T23:00:27.987Z,3.35
2022-08-28T23:02:59.761Z,3.50
2022-08-28T23:05:30.153Z,4.10
2022-08-28T23:07:58.917Z,3.97
2022-08-28T23:10:48.224Z,4.00
2022-08-28T23:13:16.384Z,3.85
2022-08-28T23:15:45.275Z,3.80
2022-08-28T23:18:15.296Z,4.03
2022-08-28T23:20:45.390Z,4.15
2022-08-28T23:23:14.090Z,4.10
2022-08-28T23:25:42.800Z,3.97
2022-08-28T23:28:11.059Z,4.10
2022-08-28T23:30:44.090Z,3.90
2022-08-28T23:33:23.654Z,3.58
2022-08-28T23:35:52.894Z,4.28
2022-08-28T23:38:22.394Z,4.40
2022-08-28T23:40:51.328Z,4.72
2022-08-28T23:43:20.106Z,4.70
2022-08-28T23:45:48.869Z,4.63
2022-08-28T23:48:18.663Z,4.80
2022-08-28T23:50:47.133Z,5.07
2022-08-28T23:53:16.608Z,5.43
2022-08-28T23:55:45.821Z,5.13
2022-08-28T23:58:17.399Z,5.00
